Slide Mountain Weather observations

Data are for 10 minute period ending at time listed.
 Day   Time   Solar   Ave.   Ave.  Ave.  Vector  Max.    Baro.  
  of    of     Rad.   Air    Rel.  Wind   Wind   Wind   Press.  
Year   Day            Temp.  Hum.  Speed  Dir.   Gust           
2015   (PST)  Kw/m2    F      %     mph   deg.    mph     mb.   
-----------------------------------------------------------------
 145   21:50   0.00   39.3    60   20.6   259     27.8    713.3 
 145   22:00   0.00   39.2    60   19.6   260     25.6    713.3 
 145   22:10   0.00   39.0    57   14.2   260     18.4    713.5 
 145   22:20   0.00   39.1    54   13.3   268     18.0    713.5 
 145   22:30   0.00   38.9    54   12.2   272     14.9    713.6 
 145   22:40   0.00   38.9    54   11.4   271     14.0    713.6 
 145   22:50   0.00   38.7    56   11.2   268     13.3    713.5 
 145   23:00   0.00   38.5    58    8.4   281     11.8    713.5 
 145   23:10   0.00   38.2    60    4.7   301      8.3    713.6 
 145   23:20   0.00   38.9    58    1.8   340      9.6    713.6 
 145   23:30   0.00   39.0    61    4.1   353      8.8    713.6 
 145   23:40   0.00   39.1    61    2.5    24      5.8    713.6 
 145   23:50   0.00   38.3    70    4.0   261     11.1    713.6 
 146    0:00   0.00   37.7    81    9.4   262     12.7    713.6 
 146    0:10   0.00   37.5    86    8.8   265     12.2    713.5 
 146    0:20   0.00   37.4    88    9.7   258     13.2    713.5 
 146    0:30   0.00   37.3    90    9.6   260     11.9    713.5 
 146    0:40   0.00   37.3    88    9.0   261     11.6    713.5 
 146    0:50   0.00   37.3    86    8.7   266     11.1    713.5 
 146    1:00   0.00   37.4    82    8.5   264     10.7    713.4 
 146    1:10   0.00   37.3    81    8.1   259     10.2    713.4 
 146    1:20   0.00   37.3    82    7.5   260      9.8    713.3 
 146    1:30   0.00   37.2    83    6.6   263      8.7    713.3 
 146    1:40   0.00   37.3    82    6.9   276      8.7    713.3 
 146    1:50   0.00   37.6    80    5.8   281      6.9    713.2 
 146    2:00   0.00   37.6    80    4.2   288      6.2    713.2 
 146    2:10   0.00   37.7    80    1.1   302      2.7    713.3 
 146    2:20   0.00   37.4    80    3.4   302      5.4    713.2 
 146    2:30   0.00   37.4    81    5.1   296      7.0    713.2 
 146    2:40   0.00   37.3    81    6.1   291      8.1    713.1 
 146    2:50   0.00   37.0    81    9.6   278     14.1    713.0 
 146    3:00   0.00   37.0    81   13.0   278     16.5    712.9 
 146    3:10   0.00   37.0    80   15.5   274     18.4    712.9 
 146    3:20   0.00   37.1    80   14.9   281     18.5    712.9 
 146    3:30   0.00   37.0    80   13.6   281     16.6    712.9 
 146    3:40   0.00   36.9    80   12.6   279     15.2    712.8 
 146    3:50   0.00   36.7    80   13.3   280     15.4    712.8 
 146    4:00   0.00   36.4    81   13.9   279     16.6    712.8 
 146    4:10   0.00   36.3    83   11.6   279     14.7    712.9 
 146    4:20   0.00   36.3    86   10.6   282     13.1    712.9 
 146    4:30   0.00   36.5    89   10.4   281     13.1    713.0 
 146    4:40   0.01   36.6    90   11.4   273     15.3    713.0 
 146    4:50   0.01   36.8    88   11.7   274     14.0    713.0 
 146    5:00   0.02   37.3    86   10.0   285     13.3    713.0 
 146    5:10   0.04   37.5    83    6.6   291      8.5    713.1 
 146    5:20   0.07   38.0    81    5.5   276      6.8    713.1 
 146    5:30   0.10   38.2    81    7.5   264     10.8    713.2 
 146    5:40   0.12   38.4    79    7.7   264     10.2    713.3 
 146    5:50   0.15   38.7    78    5.9   263      7.5    713.4 
 146    6:00   0.18   39.0    77    6.0   261      7.5    713.4 
 146    6:10   0.20   38.8    80    5.7   253      7.1    713.5 
 146    6:20   0.23   39.0    79    5.5   252      7.7    713.5 
 146    6:30   0.26   39.9    76    2.9   264      6.2    713.6 
 146    6:40   0.29   41.3    73    0.1   269      1.1    713.7 
 146    6:50   0.32   42.0    71    0.0   248      0.1    713.7 
 146    7:00   0.35   41.8    70    0.5   254      2.9    713.8 
 146    7:10   0.38   41.8    68    0.5   246      2.3    713.8 
 146    7:20   0.38   42.8    67    0.3   240      2.8    713.8 
 146    7:30   0.33   43.5    69    0.5   238      4.3    713.8 
 146    7:40   0.40   44.3    67    0.8   223      3.2    713.9 
 146    7:50   0.45   43.6    69    1.6   237      5.8    713.9 
 146    8:00   0.53   44.4    70    1.7   192      5.6    713.9 
 146    8:10   0.40   46.1    68    0.9   189      3.2    713.9 
 146    8:20   0.45   45.5    70    1.9   192      6.9    713.9 
 146    8:30   0.62   44.5    66    4.6   239      9.3    713.9 
 146    8:40   0.63   45.2    63    5.0   226     10.0    714.0 
 146    8:50   0.67   45.7    61    4.4   223      8.7    714.0 
 146    9:00   0.70   46.4    59    4.0   235      9.0    714.0 
 146    9:10   0.48   46.8    60    2.8   239      9.1    714.1 
 146    9:20   0.69   46.4    63    3.6   204      7.9    714.1 
 146    9:30   0.25   47.7    66    1.6   190      4.6    714.1 
 146    9:40   0.28   46.0    69    1.1   158      4.3    714.2 
 146    9:50   0.57   46.1    59    4.0   229      8.6    714.2 
 146   10:00   0.68   46.4    59    4.0   233      8.8    714.2 
 146   10:10   0.84   48.1    56    3.1   226      8.2    714.3 
 146   10:20   0.85   49.0    49    2.8   237      8.8    714.3 
 146   10:30   0.88   48.9    48    5.4   228     10.3    714.3 
 146   10:40   0.84   48.9    50    4.1   236     11.5    714.4 
 146   10:50   0.90   49.0    48    6.6   237     13.3    714.4 
 146   11:00   0.91   48.7    48    7.5   248     14.0    714.4 
 146   11:10   0.98   49.5    45    7.0   249     12.2    714.4 
 146   11:20   0.94   49.9    42    7.4   243     16.8    714.4 
 146   11:30   0.99   49.3    44    9.4   251     15.8    714.3 
 146   11:40   0.84   49.4    45    9.3   250     17.0    714.3 
 146   11:50   0.93   49.9    44    8.4   249     15.4    714.3 
 146   12:00   0.96   50.5    43    6.9   258     10.8    714.4 
 146   12:10   0.86   51.2    41    7.3   252     12.2    714.4 
 146   12:20   0.97   50.8    42    8.7   252     17.0    714.3 
 146   12:30   0.98   50.7    46   10.1   264     17.6    714.3 
 146   12:40   0.92   51.3    48    7.6   269     16.0    714.2 
 146   12:50   0.90   51.6    52    8.9   254     15.4    714.2 
 146   13:00   0.94   52.0    54   11.5   261     19.6    714.2 
 146   13:10   0.91   51.0    57   10.4   260     21.1    714.1 
 146   13:20   0.92   52.1    56    9.8   263     15.9    714.1 
 146   13:30   0.84   51.5    57   10.8   265     17.2    714.2 
 146   13:40   0.70   51.1    57   13.2   254     21.6    714.1 
 146   13:50   0.85   52.0    55   12.1   254     20.1    714.1 
 146   14:00   0.80   51.6    55   13.2   254     19.8    714.2 
 146   14:10   0.84   52.1    53   12.0   252     19.0    714.2 
 146   14:20   0.22   49.5    57   12.9   250     17.6    714.2 
 146   14:30   0.38   47.9    61   15.6   246     23.1    714.0 
 146   14:40   0.48   49.2    60   16.2   254     25.0    714.1 
 146   14:50   0.47   48.4    64   11.9   252     19.6    714.1 
 146   15:00   0.24   49.3    63   11.7   246     19.2    714.0 
 146   15:10   0.09   47.0    72   10.9   250     14.3    714.0 
 146   15:20   0.24   45.9    80   13.4   251     18.3    714.1 
 146   15:30   0.47   47.4    76   13.2   256     19.7    714.0 
 146   15:40   0.57   48.3    74   13.1   254     19.8    714.0 
 146   15:50   0.53   49.7    72   14.0   254     22.0    713.9 
 146   16:00   0.14   47.1    77   16.6   257     25.8    713.9 
 146   16:10   0.16   46.3    80   12.6   255     18.1    714.0 
 146   16:20   0.30   46.9    79   15.9   253     25.7    713.8 
 146   16:30   0.08   46.3    81   19.6   261     26.3    713.7 
 146   16:40   0.13   45.8    80   19.1   266     23.4    713.7 
 146   16:50   0.38   47.0    76   18.0   261     24.0    713.7 
 146   17:00   0.41   48.4    72   22.2   265     28.9    713.6 
 146   17:10   0.35   48.3    72   21.5   268     27.5    713.6 
 146   17:20   0.26   48.4    70   19.0   268     27.6    713.6 
 146   17:30   0.33   48.8    69   18.1   261     24.9    713.6 
 146   17:40   0.28   48.7    69   17.9   261     24.7    713.7 
 146   17:50   0.22   48.0    67   17.2   262     24.3    713.7 
 146   18:00   0.19   47.5    68   17.5   267     23.9    713.8 
 146   18:10   0.16   47.1    68   18.2   267     22.8    713.8 
 146   18:20   0.14   46.5    69   18.6   266     23.5    713.8 
 146   18:30   0.12   46.0    69   18.5   270     22.1    713.8 
 146   18:40   0.09   45.3    69   19.4   271     24.3    713.8 
 146   18:50   0.05   44.7    69   18.6   263     22.4    713.8 
 146   19:00   0.03   44.1    68   16.6   261     20.3    713.9 
 146   19:10   0.01   43.4    67   17.4   260     21.2    713.9 
 146   19:20   0.00   43.1    64   17.6   263     21.4    713.8 
 146   19:30   0.00   42.8    63   20.5   264     24.7    713.8 
 146   19:40   0.00   42.6    61   19.6   265     25.7    713.9 
 146   19:50   0.00   42.6    59   21.0   268     25.0    714.0 
 146   20:00   0.00   42.6    56   20.4   266     24.4    714.1 
 146   20:10   0.00   42.7    56   18.5   268     21.0    714.1 
 146   20:20   0.00   42.5    57   18.8   268     21.8    714.2 
 146   20:30   0.00   42.5    55   21.2   264     25.1    714.2 
 146   20:40   0.00   42.3    55   21.2   265     25.8    714.2 
 146   20:50   0.00   42.3    53   19.8   267     24.1    714.4 
 146   21:00   0.00   42.1    55   19.5   277     23.2    714.4 
 146   21:10   0.00   41.7    56   20.9   284     23.9    714.4 
 146   21:20   0.00   41.9    51   22.4   277     27.4    714.3 
 146   21:30   0.00   42.0    48   22.3   276     27.9    714.3 
 146   21:40   0.00   41.5    48   22.0   277     27.3    714.3 

Return to Slide Mountain graphs page.


Western Regional Climate Center,wrcc@dri.edu